Terminal Aerodrome Forecast
Issued by NWS

Home | Current Version | Previous Version | Text Only | Print | Product List | Glossary On
Versions: 1 2 3 4 5 6 7 8 9 10 11 12 13 14 15 16 17 18 19 20 21 22 23
459
FTUS43 KIND 310525
TAFLAF
TAF
KLAF 310525Z 3106/0106 00000KT 6SM BR BKN150
     FM310800 00000KT 3SM BR BCFG SCT015 BKN060
     FM311400 34006KT P6SM SCT020 BKN035 PROB30 3115/3119 4SM -TSRA
      OVC020CB
     FM312100 36010KT P6SM BKN060
     FM010000 36007KT P6SM SCT060
      AMD LTD TO CLD VIS AND WIND TIL 311300=

USA.gov is the U.S. government's official web portal to all federal, state and local government web resources and services.